Time;durP1;ratioP1;P1;durP2;ratioP2;P2;SDS_P1;SDS_P2;PMS_P1;PMS_P2;Temp;Humidity;BMP_temperature;BMP_pressure;BME280_temperature;BME280_humidity;BME280_pressure;Samples;Min_cycle;Max_cycle;Signal;HPM_P1;HPM_P2
2021/10/21 00:00:55;;;;;;;5.85;5.35;;;;;;;17.65;90.31;97456.84;5039163;27;103308;-60
2021/10/21 00:03:23;;;;;;;7.03;6.35;;;;;;;17.51;90.65;97449.66;5036191;27;104406;-59
2021/10/21 00:05:51;;;;;;;6.87;6.27;;;;;;;17.21;92.32;97437.25;5023141;27;103190;-60
2021/10/21 00:08:20;;;;;;;8.07;7.43;;;;;;;16.59;95.42;97445.50;5027116;27;103006;-59
2021/10/21 00:10:51;;;;;;;5.68;5.28;;;;;;;17.06;95.16;97444.44;5042218;27;103823;-60
2021/10/21 00:13:20;;;;;;;6.88;6.28;;;;;;;17.26;93.33;97419.69;5034469;27;103888;-59
2021/10/21 00:15:48;;;;;;;7.00;6.30;;;;;;;17.35;92.55;97433.78;5051156;27;103344;-59
2021/10/21 00:18:16;;;;;;;7.53;6.90;;;;;;;17.35;91.74;97423.09;5045860;27;103200;-59
2021/10/21 00:20:44;;;;;;;6.40;5.80;;;;;;;17.31;92.56;97432.50;5037359;27;103256;-59
2021/10/21 00:23:12;;;;;;;5.63;5.22;;;;;;;17.46;91.52;97430.66;5017155;27;103218;-59
2021/10/21 00:25:40;;;;;;;5.60;5.20;;;;;;;17.58;91.33;97423.03;5027277;27;104124;-60
2021/10/21 00:28:11;;;;;;;6.00;5.53;;;;;;;17.67;89.97;97411.25;5025275;27;102629;-60
2021/10/21 00:30:39;;;;;;;5.40;5.00;;;;;;;17.67;89.99;97409.44;5025978;27;103175;-60
2021/10/21 00:33:08;;;;;;;6.60;5.97;;;;;;;17.51;90.57;97396.25;5030581;27;103025;-60
2021/10/21 00:35:36;;;;;;;6.35;5.85;;;;;;;17.59;90.57;97395.34;5033621;27;103318;-59
2021/10/21 00:38:04;;;;;;;5.90;5.38;;;;;;;17.55;90.88;97392.22;5043302;27;104437;-59
2021/10/21 00:40:35;;;;;;;8.13;7.13;;;;;;;17.19;92.54;97384.09;5049954;27;103290;-60
2021/10/21 00:43:03;;;;;;;7.25;6.65;;;;;;;16.97;94.10;97386.84;5037409;27;103304;-59
2021/10/21 00:45:32;;;;;;;7.03;6.43;;;;;;;17.16;93.17;97383.63;5053028;27;104170;-59
2021/10/21 00:48:03;;;;;;;7.18;6.47;;;;;;;17.21;92.64;97367.88;5034469;27;102695;-59
2021/10/21 00:50:32;;;;;;;8.20;7.50;;;;;;;16.93;95.12;97358.84;5052958;27;103175;-60
2021/10/21 00:53:00;;;;;;;7.22;6.63;;;;;;;17.17;93.24;97355.94;5028863;27;103280;-60
2021/10/21 00:55:28;;;;;;;7.40;6.80;;;;;;;17.10;93.13;97336.31;5032020;27;103214;-59
2021/10/21 00:57:58;;;;;;;8.13;7.43;;;;;;;17.07;93.72;97328.69;5023599;27;102713;-59
2021/10/21 01:00:26;;;;;;;7.82;7.13;;;;;;;16.73;94.99;97342.53;5032935;27;102822;-59
2021/10/21 01:02:56;;;;;;;7.82;7.20;;;;;;;16.73;96.12;97343.38;5039607;27;103938;-60
2021/10/21 01:05:24;;;;;;;7.93;7.22;;;;;;;16.70;96.29;97326.94;5042235;27;103742;-59
2021/10/21 01:07:54;;;;;;;9.40;8.60;;;;;;;16.29;98.08;97312.28;5043389;27;103040;-59
2021/10/21 01:10:22;;;;;;;7.78;7.10;;;;;;;16.74;97.34;97291.72;5045592;27;102983;-59
2021/10/21 01:12:50;;;;;;;8.43;7.73;;;;;;;16.46;98.38;97285.31;5032998;27;103300;-59
2021/10/21 01:15:23;;;;;;;9.43;8.50;;;;;;;16.62;97.16;97279.84;5039443;27;103220;-60
2021/10/21 01:17:51;;;;;;;10.07;9.27;;;;;;;16.19;100.00;97276.06;5017120;27;102723;-59
2021/10/21 01:20:25;;;;;;;9.20;8.40;;;;;;;16.41;99.74;97276.19;5042135;27;103195;-59
2021/10/21 01:22:53;;;;;;;10.33;9.30;;;;;;;16.33;99.61;97260.28;5035029;27;103282;-58
2021/10/21 01:25:22;;;;;;;9.00;8.30;;;;;;;16.56;99.15;97269.91;5018999;27;103648;-58
2021/10/21 01:27:51;;;;;;;8.75;7.95;;;;;;;16.69;97.22;97286.09;5037069;27;102644;-61
2021/10/21 01:30:21;;;;;;;8.65;7.95;;;;;;;16.73;96.60;97284.72;5024036;27;103087;-61
2021/10/21 01:32:50;;;;;;;7.38;6.80;;;;;;;16.71;96.77;97270.75;5036133;27;103256;-58
2021/10/21 01:35:18;;;;;;;7.17;6.50;;;;;;;16.58;97.30;97259.91;5037334;27;103203;-58
2021/10/21 01:37:47;;;;;;;6.80;6.20;;;;;;;16.74;96.32;97250.88;5045593;27;102937;-58
2021/10/21 01:40:16;;;;;;;6.57;5.97;;;;;;;16.51;97.31;97234.94;5036481;27;102801;-58
2021/10/21 01:42:45;;;;;;;6.40;5.85;;;;;;;16.38;97.91;97215.25;5050665;27;103285;-59
2021/10/21 01:45:19;;;;;;;6.53;5.93;;;;;;;16.49;98.00;97204.97;5037212;27;103498;-58
2021/10/21 01:47:48;;;;;;;6.35;5.85;;;;;;;16.20;99.30;97196.94;5035431;27;102828;-58
2021/10/21 01:50:17;;;;;;;6.60;6.00;;;;;;;16.30;99.08;97178.88;5033107;27;102701;-58
2021/10/21 01:52:47;;;;;;;6.47;5.97;;;;;;;16.37;98.25;97166.47;5026765;27;103267;-58
2021/10/21 01:55:16;;;;;;;6.47;5.97;;;;;;;16.22;98.53;97144.34;5040617;27;103416;-59
2021/10/21 01:57:45;;;;;;;6.63;6.03;;;;;;;16.15;99.83;97146.06;5042890;27;102727;-58
2021/10/21 02:00:15;;;;;;;6.17;5.67;;;;;;;16.31;97.84;97151.19;5019574;27;104474;-58
2021/10/21 02:02:44;;;;;;;5.30;4.80;;;;;;;16.38;96.91;97145.97;5039531;27;104375;-59
2021/10/21 02:05:14;;;;;;;6.07;5.50;;;;;;;16.25;97.40;97136.78;5029358;27;103294;-58
2021/10/21 02:07:42;;;;;;;5.50;5.10;;;;;;;16.34;97.97;97134.00;5036830;27;102723;-58
2021/10/21 02:10:14;;;;;;;5.15;4.63;;;;;;;16.41;97.32;97124.28;5036684;27;103805;-58
2021/10/21 02:12:42;;;;;;;5.20;4.70;;;;;;;16.33;97.08;97114.56;5042268;27;103252;-58
2021/10/21 02:15:13;;;;;;;4.78;4.38;;;;;;;16.41;96.84;97103.81;5041489;27;103852;-58
2021/10/21 02:17:41;;;;;;;4.95;4.40;;;;;;;16.45;96.80;97083.75;5048944;27;102656;-61
2021/10/21 02:20:12;;;;;;;4.20;3.80;;;;;;;16.42;97.13;97062.00;5046160;27;103101;-58
2021/10/21 02:22:40;;;;;;;4.35;3.95;;;;;;;16.30;98.05;97058.97;5035327;27;103240;-59
2021/10/21 02:25:12;;;;;;;3.80;3.50;;;;;;;16.38;97.15;97077.53;5017033;27;103005;-58
2021/10/21 02:27:41;;;;;;;4.20;3.90;;;;;;;16.57;95.37;97082.28;5035319;27;102524;-58
2021/10/21 02:30:11;;;;;;;3.90;3.50;;;;;;;16.41;97.29;97093.13;5040609;27;103897;-58
2021/10/21 02:32:39;;;;;;;3.63;3.25;;;;;;;16.66;95.67;97086.50;5037304;27;103298;-58
2021/10/21 02:35:10;;;;;;;4.05;3.33;;;;;;;16.53;96.68;97090.84;5035600;27;103117;-61
2021/10/21 02:37:38;;;;;;;3.38;3.10;;;;;;;16.44;97.67;97081.28;5032022;27;102680;-58
2021/10/21 02:40:10;;;;;;;3.30;3.00;;;;;;;16.48;97.15;97083.38;5032612;27;103087;-58
2021/10/21 02:42:40;;;;;;;3.20;3.00;;;;;;;16.47;97.15;97057.75;5018704;27;104513;-59
2021/10/21 02:45:09;;;;;;;2.80;2.60;;;;;;;16.40;97.90;97048.84;5045536;27;103717;-59
2021/10/21 02:47:37;;;;;;;3.33;3.03;;;;;;;16.29;98.66;97036.00;5050892;27;102961;-58
2021/10/21 02:50:05;;;;;;;2.60;2.40;;;;;;;16.36;97.36;97050.25;5030500;27;103856;-58
2021/10/21 02:52:34;;;;;;;2.80;2.53;;;;;;;16.54;96.80;97050.69;5052074;27;103678;-59
2021/10/21 02:55:03;;;;;;;2.40;2.20;;;;;;;16.37;96.86;97051.88;5036699;27;103184;-58
2021/10/21 02:57:31;;;;;;;2.40;2.13;;;;;;;16.50;95.77;97043.22;5038281;27;102606;-59
2021/10/21 03:00:01;;;;;;;2.17;2.00;;;;;;;16.47;95.85;97044.44;5038204;27;103149;-59
2021/10/21 03:02:29;;;;;;;3.40;2.15;;;;;;;16.51;95.92;97044.84;5043116;27;103257;-59
2021/10/21 03:04:57;;;;;;;2.22;2.03;;;;;;;16.71;94.75;97054.78;5012767;27;104141;-59
2021/10/21 03:07:26;;;;;;;1.95;1.85;;;;;;;16.79;93.89;97054.66;5045946;27;102692;-59
2021/10/21 03:09:54;;;;;;;2.47;2.25;;;;;;;16.63;95.18;97060.22;5042701;27;102651;-59
2021/10/21 03:12:24;;;;;;;2.80;2.13;;;;;;;16.50;95.60;97059.22;5030208;27;104041;-59
2021/10/21 03:14:55;;;;;;;2.15;1.90;;;;;;;16.57;95.78;97052.16;5048147;27;104408;-58
2021/10/21 03:17:24;;;;;;;2.40;2.03;;;;;;;16.78;93.66;97071.69;5033365;27;102773;-59
2021/10/21 03:19:52;;;;;;;2.05;1.85;;;;;;;16.59;94.46;97085.59;5035800;27;103848;-59
2021/10/21 03:22:23;;;;;;;2.13;2.00;;;;;;;16.65;94.01;97084.84;5045557;27;103271;-58
2021/10/21 03:24:52;;;;;;;2.30;2.03;;;;;;;16.44;94.25;97083.94;5029790;27;103416;-59
2021/10/21 03:27:20;;;;;;;1.88;1.77;;;;;;;16.67;93.03;97088.16;5033834;27;102653;-59
2021/10/21 03:29:48;;;;;;;2.03;1.85;;;;;;;16.53;93.24;97106.81;5019912;27;102872;-59
2021/10/21 03:32:20;;;;;;;1.83;1.63;;;;;;;16.50;93.21;97124.03;5047780;27;103917;-59
2021/10/21 03:34:49;;;;;;;2.80;1.80;;;;;;;16.48;93.19;97120.69;5030187;27;104204;-59
2021/10/21 03:37:17;;;;;;;2.30;1.55;;;;;;;16.20;94.52;97119.69;5052676;27;102748;-59
2021/10/21 03:39:45;;;;;;;2.80;1.70;;;;;;;16.22;93.49;97093.72;5036597;27;103202;-59
2021/10/21 03:42:13;;;;;;;2.65;1.60;;;;;;;16.27;93.46;97096.66;5050687;27;103260;-59
2021/10/21 03:44:41;;;;;;;2.15;1.30;;;;;;;16.12;93.70;97101.97;5028244;27;103217;-58
2021/10/21 03:47:11;;;;;;;2.08;1.50;;;;;;;16.24;93.44;97110.34;5032458;27;102785;-59
2021/10/21 03:49:39;;;;;;;2.65;1.42;;;;;;;16.27;93.26;97119.78;5043585;27;103074;-61
2021/10/21 03:52:08;;;;;;;2.58;1.60;;;;;;;16.41;92.82;97130.44;5038997;27;103238;-59
2021/10/21 03:54:36;;;;;;;1.58;1.48;;;;;;;16.40;92.79;97128.78;5024289;27;103368;-58
2021/10/21 03:57:05;;;;;;;1.50;1.40;;;;;;;16.31;92.79;97139.75;5025256;27;103123;-58
2021/10/21 03:59:33;;;;;;;2.17;1.50;;;;;;;16.29;92.50;97131.09;5036437;27;102905;-58
2021/10/21 04:02:01;;;;;;;2.17;1.50;;;;;;;16.35;90.47;97155.16;5045508;27;104300;-59
2021/10/21 04:04:30;;;;;;;1.90;1.20;;;;;;;16.33;90.57;97167.84;5033721;27;103417;-59
2021/10/21 04:06:58;;;;;;;1.70;1.30;;;;;;;16.26;90.79;97180.25;5042670;27;102945;-59
2021/10/21 04:09:30;;;;;;;1.70;1.30;;;;;;;16.32;90.44;97189.34;5034393;27;103121;-64
2021/10/21 04:11:58;;;;;;;1.60;1.20;;;;;;;16.33;88.85;97194.50;5051121;27;103867;-64
2021/10/21 04:14:27;;;;;;;1.90;1.20;;;;;;;16.33;89.05;97207.84;5035264;27;103290;-63
2021/10/21 04:16:58;;;;;;;1.80;1.20;;;;;;;16.30;88.16;97207.34;5034554;27;103174;-63
2021/10/21 04:19:26;;;;;;;1.48;1.08;;;;;;;16.51;86.93;97204.78;5005496;27;102791;-63
2021/10/21 04:21:56;;;;;;;2.40;1.10;;;;;;;16.23;85.33;97223.22;5034382;27;103250;-67
2021/10/21 04:24:24;;;;;;;1.50;1.10;;;;;;;16.30;84.30;97226.84;5046395;27;103077;-67
2021/10/21 04:26:53;;;;;;;1.70;0.80;;;;;;;16.46;82.94;97242.66;5046728;27;102785;-67
2021/10/21 04:29:21;;;;;;;2.20;0.77;;;;;;;16.18;77.67;97244.25;5044268;27;102865;-67
2021/10/21 04:31:54;;;;;;;1.40;0.93;;;;;;;16.25;78.61;97243.34;5037176;27;103157;-69
2021/10/21 04:34:22;;;;;;;1.27;0.70;;;;;;;16.13;79.18;97254.66;5036024;27;103185;-68
2021/10/21 04:36:51;;;;;;;1.58;0.70;;;;;;;16.16;74.41;97255.13;5033258;27;102780;-67
2021/10/21 04:39:19;;;;;;;1.95;0.80;;;;;;;16.00;70.04;97267.75;5035328;27;103109;-67
2021/10/21 04:41:47;;;;;;;1.33;0.80;;;;;;;16.07;70.93;97268.69;5035767;27;103260;-69
2021/10/21 04:44:16;;;;;;;1.57;0.70;;;;;;;16.17;71.24;97282.56;5037222;27;103175;-67
2021/10/21 04:46:45;;;;;;;2.17;0.70;;;;;;;16.12;69.92;97299.09;5030024;27;102770;-67
2021/10/21 04:49:13;;;;;;;2.67;0.80;;;;;;;15.86;69.72;97301.28;5024031;27;104103;-67
2021/10/21 04:51:41;;;;;;;2.10;0.80;;;;;;;15.85;71.69;97285.50;5044060;27;103242;-67
2021/10/21 04:54:09;;;;;;;1.70;0.88;;;;;;;15.90;71.44;97318.56;5049273;27;103172;-67
2021/10/21 04:56:37;;;;;;;1.95;0.98;;;;;;;15.95;71.50;97326.03;5036515;27;102768;-67
2021/10/21 04:59:05;;;;;;;2.25;0.80;;;;;;;15.80;72.98;97301.19;5033589;27;103991;-66
2021/10/21 05:01:34;;;;;;;2.45;0.90;;;;;;;15.52;73.92;97306.97;5034012;27;104175;-68
2021/10/21 05:04:03;;;;;;;1.95;1.00;;;;;;;15.26;69.85;97310.94;5033406;27;103185;-67
2021/10/21 05:06:31;;;;;;;4.45;0.98;;;;;;;15.15;67.37;97317.47;5025384;27;102841;-68
2021/10/21 05:08:59;;;;;;;3.70;1.10;;;;;;;15.13;67.66;97331.94;5044541;27;104140;-67
2021/10/21 05:11:27;;;;;;;3.30;1.10;;;;;;;15.07;66.29;97333.47;5016888;27;103307;-67
2021/10/21 05:13:55;;;;;;;6.53;1.25;;;;;;;15.10;67.17;97335.78;5036957;27;103201;-67
2021/10/21 05:16:23;;;;;;;3.53;1.38;;;;;;;15.02;66.66;97351.72;5041472;27;102631;-67
2021/10/21 05:18:53;;;;;;;4.15;1.00;;;;;;;14.87;66.24;97346.31;5036909;27;102669;-67
2021/10/21 05:21:21;;;;;;;4.03;1.23;;;;;;;14.84;65.60;97351.13;5020952;27;103277;-67
2021/10/21 05:23:49;;;;;;;4.95;1.40;;;;;;;14.85;66.45;97368.75;5041813;27;103161;-67
2021/10/21 05:26:17;;;;;;;3.00;1.10;;;;;;;14.94;66.19;97362.38;5035870;27;102955;-67
2021/10/21 05:28:45;;;;;;;3.90;1.33;;;;;;;14.95;65.71;97380.03;5035506;27;103155;-68
2021/10/21 05:31:13;;;;;;;5.07;1.20;;;;;;;14.71;64.63;97388.03;5034706;27;103553;-67
2021/10/21 05:33:42;;;;;;;3.45;1.20;;;;;;;14.86;65.66;97381.84;5035065;27;104297;-68
2021/10/21 05:36:14;;;;;;;4.35;1.40;;;;;;;14.67;65.19;97379.56;5027217;27;103092;-67
2021/10/21 05:38:45;;;;;;;5.22;1.30;;;;;;;14.54;64.65;97376.56;5035793;27;104026;-68
2021/10/21 05:41:14;;;;;;;4.50;1.48;;;;;;;14.61;64.60;97382.06;5028150;27;103225;-66
2021/10/21 05:43:42;;;;;;;4.60;1.67;;;;;;;14.48;64.45;97382.56;5035649;27;102952;-67
2021/10/21 05:46:10;;;;;;;5.78;1.42;;;;;;;14.60;63.33;97391.84;5036543;27;103724;-67
2021/10/21 05:48:38;;;;;;;6.97;1.70;;;;;;;14.55;63.44;97398.66;5033091;27;102865;-67
2021/10/21 05:51:06;;;;;;;6.88;1.92;;;;;;;14.52;63.10;97394.50;5039372;27;103426;-66
2021/10/21 05:53:36;;;;;;;5.38;1.70;;;;;;;14.47;63.62;97408.31;5028055;27;103390;-66
2021/10/21 05:56:04;;;;;;;5.88;1.73;;;;;;;14.71;63.63;97414.63;5040506;27;103115;-67
2021/10/21 05:58:32;;;;;;;5.20;1.45;;;;;;;14.54;63.39;97423.59;5028790;27;102765;-67
2021/10/21 06:01:00;;;;;;;9.05;1.83;;;;;;;14.52;63.43;97421.94;5011797;27;103260;-66
2021/10/21 06:03:32;;;;;;;4.75;1.75;;;;;;;14.62;64.29;97436.88;5029362;27;103356;-67
2021/10/21 06:06:01;;;;;;;5.05;1.38;;;;;;;14.39;63.74;97442.84;5032610;27;102973;-67
2021/10/21 06:08:29;;;;;;;6.15;1.40;;;;;;;14.45;65.17;97438.72;5038151;27;103653;-66
2021/10/21 06:11:02;;;;;;;4.53;1.40;;;;;;;14.49;63.70;97448.81;5026995;27;103208;-66
2021/10/21 06:13:31;;;;;;;3.55;1.33;;;;;;;14.57;64.42;97449.84;5027533;27;103396;-67
2021/10/21 06:15:59;;;;;;;6.43;1.63;;;;;;;14.37;63.80;97455.44;5035771;27;103885;-67
2021/10/21 06:18:28;;;;;;;5.95;1.50;;;;;;;14.61;63.22;97461.78;5044345;27;102980;-66
2021/10/21 06:20:56;;;;;;;4.40;1.48;;;;;;;14.43;63.67;97459.28;5039276;27;104019;-66
2021/10/21 06:23:25;;;;;;;6.40;1.65;;;;;;;14.36;62.55;97460.94;5038272;27;103208;-66
2021/10/21 06:25:54;;;;;;;5.13;1.40;;;;;;;14.25;63.35;97456.75;5036579;27;102930;-67
2021/10/21 06:28:23;;;;;;;6.93;1.83;;;;;;;14.28;63.06;97456.41;5050181;27;104073;-67
2021/10/21 06:30:52;;;;;;;5.55;1.67;;;;;;;14.31;63.03;97445.47;5053607;27;103851;-67
2021/10/21 06:33:21;;;;;;;5.63;1.60;;;;;;;14.30;61.93;97437.66;5054412;27;102952;-66
2021/10/21 06:35:49;;;;;;;5.13;1.60;;;;;;;14.25;62.71;97435.50;5035712;27;104060;-66
2021/10/21 06:38:16;;;;;;;5.22;1.90;;;;;;;14.30;61.29;97443.78;5043064;27;103668;-66
2021/10/21 06:40:47;;;;;;;6.03;1.90;;;;;;;14.41;61.40;97446.16;5021649;27;103235;-66
2021/10/21 06:43:15;;;;;;;8.23;1.90;;;;;;;14.22;60.78;97462.38;5045999;27;103172;-66
2021/10/21 06:45:44;;;;;;;7.13;1.63;;;;;;;14.27;60.00;97473.34;5033033;27;102751;-67
2021/10/21 06:48:12;;;;;;;7.72;1.50;;;;;;;14.32;59.48;97465.75;5034078;27;102729;-66
2021/10/21 06:50:40;;;;;;;4.30;1.50;;;;;;;14.28;60.32;97472.34;5023680;27;103335;-66
2021/10/21 06:53:08;;;;;;;8.23;1.60;;;;;;;14.39;59.58;97492.50;5043472;27;103179;-67
2021/10/21 06:55:36;;;;;;;3.60;1.30;;;;;;;14.59;59.38;97475.25;5042576;27;103033;-66
2021/10/21 06:58:04;;;;;;;6.63;1.70;;;;;;;14.58;58.27;97488.69;5056880;27;102917;-67
2021/10/21 07:00:38;;;;;;;6.80;1.75;;;;;;;14.69;59.17;97507.81;5048894;27;103679;-67
2021/10/21 07:03:08;;;;;;;7.47;1.73;;;;;;;14.94;57.62;97521.94;5055198;27;103218;-67
2021/10/21 07:05:39;;;;;;;5.13;1.60;;;;;;;14.91;57.14;97509.81;5046067;27;102626;-67
2021/10/21 07:08:07;;;;;;;5.47;1.30;;;;;;;15.21;56.45;97513.63;5049349;27;103387;-67
2021/10/21 07:10:36;;;;;;;4.97;1.38;;;;;;;15.01;57.61;97514.97;5036285;27;103219;-67
2021/10/21 07:13:04;;;;;;;3.60;1.20;;;;;;;15.06;56.16;97537.41;5042071;27;103426;-65
2021/10/21 07:15:33;;;;;;;7.55;1.50;;;;;;;15.49;55.85;97554.88;5024485;27;102893;-67
2021/10/21 07:18:02;;;;;;;6.30;1.45;;;;;;;15.54;55.94;97573.81;5039368;27;102652;-67
2021/10/21 07:20:32;;;;;;;4.20;1.30;;;;;;;15.72;55.54;97599.41;5042690;27;104128;-67
2021/10/21 07:23:00;;;;;;;5.40;1.00;;;;;;;15.96;54.71;97596.69;5023623;27;103176;-67
2021/10/21 07:25:29;;;;;;;5.95;1.25;;;;;;;15.89;53.25;97577.06;5033223;27;102877;-67
2021/10/21 07:27:58;;;;;;;5.53;1.25;;;;;;;16.14;52.73;97613.31;5032660;27;102976;-66
2021/10/21 07:30:28;;;;;;;3.13;1.03;;;;;;;16.40;52.59;97632.50;5016273;27;103415;-67
2021/10/21 07:32:58;;;;;;;5.93;1.20;;;;;;;16.27;52.69;97647.38;5016707;27;103252;-67
2021/10/21 07:35:26;;;;;;;5.15;0.88;;;;;;;15.97;53.40;97670.28;5035827;27;103826;-67
2021/10/21 07:37:56;;;;;;;5.65;1.35;;;;;;;15.93;54.14;97688.44;5045029;27;103147;-59
2021/10/21 07:40:24;;;;;;;5.10;0.90;;;;;;;15.56;53.85;97683.63;5042806;27;103282;-59
2021/10/21 07:42:52;;;;;;;3.85;0.88;;;;;;;16.13;53.21;97696.88;5025986;27;103256;-59
2021/10/21 07:45:20;;;;;;;10.25;0.90;;;;;;;16.15;52.22;97702.88;5043055;27;102793;-58
2021/10/21 07:47:48;;;;;;;7.15;1.13;;;;;;;15.86;53.15;97682.09;5044543;27;103704;-59
2021/10/21 07:50:18;;;;;;;4.35;0.80;;;;;;;16.23;53.50;97697.53;5037647;27;103956;-59
2021/10/21 07:52:46;;;;;;;4.15;1.00;;;;;;;16.43;52.09;97714.78;5036183;27;103193;-59
2021/10/21 07:55:16;;;;;;;3.30;0.80;;;;;;;16.56;52.50;97747.09;5040468;27;102848;-59
2021/10/21 07:57:44;;;;;;;6.40;0.80;;;;;;;16.66;51.94;97731.75;5048471;27;102850;-59
2021/10/21 08:00:13;;;;;;;2.63;0.95;;;;;;;16.38;52.39;97754.47;5048947;27;103202;-59
2021/10/21 08:02:42;;;;;;;4.25;1.00;;;;;;;16.24;52.79;97750.66;5036720;27;102975;-59
2021/10/21 08:05:11;;;;;;;2.05;0.85;;;;;;;16.47;51.78;97764.13;5050205;27;102813;-58
2021/10/21 08:07:41;;;;;;;3.07;0.80;;;;;;;16.85;51.59;97786.53;5026994;27;102940;-58
2021/10/21 08:10:10;;;;;;;2.93;0.80;;;;;;;17.37;51.07;97794.81;5042354;27;103223;-59
2021/10/21 08:12:40;;;;;;;3.60;0.87;;;;;;;16.91;52.29;97803.69;5018902;27;103437;-59
2021/10/21 08:15:10;;;;;;;5.65;0.80;;;;;;;17.36;51.53;97815.34;5031914;27;103200;-59
2021/10/21 08:17:39;;;;;;;2.77;0.83;;;;;;;16.82;52.27;97821.53;5050556;27;103448;-59
2021/10/21 08:20:11;;;;;;;2.20;0.80;;;;;;;17.03;51.76;97832.50;5043158;27;104272;-59
2021/10/21 08:22:40;;;;;;;4.13;0.70;;;;;;;17.09;51.73;97844.31;5023108;27;103187;-58
2021/10/21 08:25:10;;;;;;;4.35;1.00;;;;;;;17.09;51.28;97858.50;5034816;27;102592;-58
2021/10/21 08:27:40;;;;;;;3.72;0.80;;;;;;;16.66;52.13;97851.75;5035711;27;104161;-58
2021/10/21 08:30:09;;;;;;;2.70;0.70;;;;;;;16.73;52.24;97870.56;5035777;27;104068;-61
2021/10/21 08:32:40;;;;;;;2.65;0.70;;;;;;;16.42;52.85;97891.72;5040028;27;103326;-61
2021/10/21 08:35:14;;;;;;;2.15;0.82;;;;;;;16.07;53.75;97889.38;5050187;27;102729;-58
2021/10/21 08:37:42;;;;;;;2.92;0.73;;;;;;;16.10;54.44;97915.69;5045299;27;104031;-58
2021/10/21 08:40:11;;;;;;;3.00;0.80;;;;;;;16.24;54.38;97902.56;5052010;27;103930;-58
2021/10/21 08:42:40;;;;;;;3.20;0.73;;;;;;;16.72;53.64;97917.75;5052140;27;103207;-58
2021/10/21 08:45:09;;;;;;;2.88;0.80;;;;;;;16.03;55.16;97949.28;5053776;27;103020;-58
2021/10/21 08:47:41;;;;;;;4.30;0.80;;;;;;;15.47;57.62;97945.44;5039270;27;102755;-60
2021/10/21 08:50:11;;;;;;;5.95;1.10;;;;;;;15.66;57.79;97947.84;5043210;27;103229;-61
2021/10/21 08:52:39;;;;;;;3.50;0.80;;;;;;;15.94;58.04;97958.28;5038642;27;103371;-59
2021/10/21 08:55:08;;;;;;;2.95;0.70;;;;;;;16.08;57.77;97976.31;5039610;27;102669;-59
2021/10/21 08:57:36;;;;;;;3.23;0.80;;;;;;;16.34;57.36;97981.50;5022689;27;103285;-60
2021/10/21 09:00:07;;;;;;;3.07;0.63;;;;;;;16.11;58.14;97975.97;5021815;27;104163;-60
2021/10/21 09:02:44;;;;;;;2.97;0.70;;;;;;;15.82;59.35;97975.53;5033677;27;103200;-60
2021/10/21 09:05:19;;;;;;;1.20;0.57;;;;;;;16.19;58.04;97994.66;5033347;27;102950;-60
2021/10/21 09:08:03;;;;;;;1.88;0.50;;;;;;;16.19;58.17;97994.66;5038893;27;102802;-60
2021/10/21 09:10:31;;;;;;;3.10;0.70;;;;;;;16.17;57.88;98007.28;5041639;27;103205;-60
2021/10/21 09:13:00;;;;;;;2.40;0.40;;;;;;;16.01;58.57;98017.91;5051293;27;103224;-61
2021/10/21 09:15:33;;;;;;;1.73;0.63;;;;;;;16.61;56.53;98011.44;5039436;27;103913;-68
2021/10/21 09:18:12;;;;;;;1.80;0.80;;;;;;;16.45;57.60;98022.00;5045571;27;102739;-69
2021/10/21 09:20:43;;;;;;;1.07;0.70;;;;;;;16.36;56.91;98038.16;5045144;27;103512;-69
2021/10/21 09:23:16;;;;;;;2.97;0.70;;;;;;;16.09;56.47;98036.56;5030003;27;103199;-69
2021/10/21 09:25:45;;;;;;;0.68;0.40;;;;;;;16.36;56.99;98039.00;5042747;27;102690;-68
2021/10/21 09:28:24;;;;;;;1.90;0.40;;;;;;;16.59;56.67;98056.06;5047414;27;102627;-69
2021/10/21 09:30:57;;;;;;;1.65;0.40;;;;;;;16.07;56.59;98044.75;5036180;27;104097;-69
2021/10/21 09:33:26;;;;;;;1.10;0.55;;;;;;;16.26;57.02;98062.28;5047188;27;103238;-69
2021/10/21 09:35:57;;;;;;;2.20;0.55;;;;;;;16.46;55.31;98071.69;5038706;27;102731;-69
2021/10/21 09:38:28;;;;;;;1.40;0.50;;;;;;;16.40;56.08;98077.66;5025453;27;104011;-69
2021/10/21 09:40:58;;;;;;;1.80;0.50;;;;;;;16.10;57.51;98086.22;5043348;27;103311;-69
2021/10/21 09:43:31;;;;;;;1.75;0.43;;;;;;;16.44;56.37;98095.00;5037873;27;103175;-69
2021/10/21 09:46:01;;;;;;;0.60;0.30;;;;;;;16.34;56.26;98109.44;5038751;27;102789;-69
2021/10/21 09:48:29;;;;;;;0.85;0.50;;;;;;;15.95;57.49;98119.75;5005323;27;104476;-68
2021/10/21 09:50:57;;;;;;;2.03;0.60;;;;;;;16.19;57.80;98112.75;5049721;27;102912;-69
2021/10/21 09:53:29;;;;;;;1.50;0.50;;;;;;;16.74;56.29;98122.94;5055863;27;103237;-69
2021/10/21 09:56:04;;;;;;;0.82;0.50;;;;;;;17.03;55.55;98135.84;5049058;27;102649;-69
2021/10/21 09:58:35;;;;;;;1.98;0.55;;;;;;;16.35;56.73;98141.28;5052011;27;102952;-69
2021/10/21 10:01:09;;;;;;;0.70;0.40;;;;;;;16.66;55.27;98153.09;5035195;27;104539;-68
2021/10/21 10:03:41;;;;;;;1.50;0.50;;;;;;;16.39;54.47;98171.97;5035141;27;103004;-68
2021/10/21 10:06:10;;;;;;;1.75;0.57;;;;;;;16.14;54.96;98180.84;5054502;27;102725;-69
2021/10/21 10:08:39;;;;;;;1.58;0.70;;;;;;;16.67;54.04;98177.94;5045332;27;104369;-68
2021/10/21 10:11:11;;;;;;;2.10;0.70;;;;;;;17.00;54.37;98171.69;5028754;27;103270;-68
2021/10/21 10:13:42;;;;;;;3.00;0.63;;;;;;;16.94;53.27;98183.03;5034848;27;103779;-69
2021/10/21 10:16:12;;;;;;;1.60;0.70;;;;;;;16.63;52.86;98188.09;5042924;27;102976;-68
2021/10/21 10:18:42;;;;;;;2.37;0.80;;;;;;;16.35;52.75;98180.44;5035348;27;104072;-68
2021/10/21 10:21:13;;;;;;;2.17;0.60;;;;;;;16.50;53.58;98185.03;5017247;27;103217;-69
2021/10/21 10:23:49;;;;;;;3.58;0.85;;;;;;;16.21;52.44;98173.88;5037367;27;103039;-67
2021/10/21 10:26:42;;;;;;;2.00;0.88;;;;;;;16.84;51.52;98171.66;5037394;27;102837;-68
2021/10/21 10:29:13;;;;;;;3.13;0.85;;;;;;;16.84;51.58;98168.16;5040597;27;103954;-67
2021/10/21 10:31:46;;;;;;;3.25;1.10;;;;;;;17.50;51.64;98174.25;5033120;27;103446;-67
2021/10/21 10:34:47;;;;;;;3.17;0.80;;;;;;;17.42;50.06;98176.09;5041072;27;103461;-68
2021/10/21 10:37:42;;;;;;;3.33;0.90;;;;;;;17.39;50.28;98182.59;5030659;27;102821;-67
2021/10/21 10:40:13;;;;;;;2.40;0.80;;;;;;;17.07;50.09;98187.88;5049791;27;103971;-68
2021/10/21 10:43:01;;;;;;;3.17;0.85;;;;;;;17.41;49.32;98191.25;5029586;27;104491;-68
2021/10/21 10:45:48;;;;;;;4.27;1.00;;;;;;;17.57;49.61;98187.81;5037570;27;103458;-68
2021/10/21 10:49:02;;;;;;;2.57;1.20;;;;;;;18.33;48.75;98197.03;5050686;27;102993;-68
2021/10/21 10:51:59;;;;;;;3.05;1.10;;;;;;;17.84;48.99;98177.63;5016652;27;102774;-68
2021/10/21 10:54:55;;;;;;;3.47;1.03;;;;;;;17.80;48.44;98197.66;5034590;27;103273;-68
2021/10/21 10:57:55;;;;;;;2.63;1.02;;;;;;;17.96;48.37;98186.94;5047379;27;103192;-68
2021/10/21 11:00:44;;;;;;;4.53;1.20;;;;;;;17.36;48.25;98201.63;5035062;27;102970;-67
2021/10/21 11:03:15;;;;;;;3.23;0.90;;;;;;;17.66;48.13;98200.16;5031053;27;103681;-68
2021/10/21 11:05:56;;;;;;;2.35;1.00;;;;;;;17.88;47.99;98186.94;5017113;27;104254;-68
2021/10/21 11:08:52;;;;;;;2.58;1.10;;;;;;;17.92;47.42;98190.97;5043554;27;103766;-68
2021/10/21 11:11:50;;;;;;;2.63;0.95;;;;;;;18.08;47.77;98198.09;5026646;27;103074;-68
2021/10/21 11:14:22;;;;;;;2.10;0.90;;;;;;;18.26;46.37;98197.91;5041185;27;103954;-68
2021/10/21 11:16:53;;;;;;;3.97;1.00;;;;;;;18.02;47.01;98197.97;5036515;27;103341;-68
2021/10/21 11:19:48;;;;;;;2.85;1.10;;;;;;;18.63;46.64;98200.84;5045786;27;103110;-68
2021/10/21 11:22:41;;;;;;;2.28;0.90;;;;;;;17.90;48.00;98208.16;5019434;27;102780;-68
2021/10/21 11:25:15;;;;;;;3.07;1.07;;;;;;;18.51;45.85;98186.16;5021411;27;103019;-68
2021/10/21 11:27:45;;;;;;;3.30;1.10;;;;;;;18.64;45.99;98199.00;5005426;27;104491;-68
2021/10/21 11:30:17;;;;;;;3.85;1.00;;;;;;;18.62;45.99;98192.97;5042896;27;103218;-68
2021/10/21 11:33:06;;;;;;;4.97;0.98;;;;;;;17.88;46.98;98200.31;5017070;27;102769;-68
2021/10/21 11:35:37;;;;;;;3.50;1.15;;;;;;;18.09;47.10;98193.59;5032713;27;103328;-68
2021/10/21 11:38:11;;;;;;;2.33;1.10;;;;;;;18.16;45.95;98202.63;5044828;27;103337;-68
2021/10/21 11:40:42;;;;;;;3.13;1.03;;;;;;;17.70;45.63;98191.66;5042328;27;103165;-68